createdAt,value
2022-12-18T00:04:42.470Z,41.97
2022-12-18T00:09:44.276Z,38.43
2022-12-18T00:14:46.460Z,37.53
2022-12-18T00:19:48.254Z,40.67
2022-12-18T00:24:50.000Z,40.00
2022-12-18T00:29:51.814Z,38.87
2022-12-18T00:34:53.560Z,40.23
2022-12-18T00:39:55.305Z,38.23
2022-12-18T00:44:57.089Z,41.53
2022-12-18T00:49:58.770Z,40.00
2022-12-18T00:55:05.793Z,37.40
2022-12-18T01:00:10.565Z,35.03
2022-12-18T01:05:14.178Z,34.90
2022-12-18T01:10:15.880Z,35.83
2022-12-18T01:15:21.108Z,35.57
2022-12-18T01:20:22.766Z,33.23
2022-12-18T01:25:24.834Z,32.17
2022-12-18T01:30:26.654Z,34.33
2022-12-18T01:35:28.488Z,31.93
2022-12-18T01:40:30.228Z,32.53
2022-12-18T01:45:33.225Z,34.03
2022-12-18T01:50:43.098Z,34.27
2022-12-18T01:55:48.685Z,33.90
2022-12-18T02:00:50.450Z,35.17
2022-12-18T02:06:19.859Z,35.50
2022-12-18T02:11:27.075Z,33.43
2022-12-18T02:16:52.790Z,32.93
2022-12-18T02:22:34.514Z,34.53
2022-12-18T02:27:38.295Z,31.73
2022-12-18T02:32:42.783Z,32.20
2022-12-18T02:37:45.944Z,29.27
2022-12-18T02:42:47.637Z,31.17
2022-12-18T02:47:50.846Z,29.10
2022-12-18T02:53:16.775Z,31.03
2022-12-18T02:58:48.042Z,28.63
2022-12-18T03:03:58.450Z,28.37
2022-12-18T03:09:05.594Z,28.00
2022-12-18T03:14:08.261Z,26.60
2022-12-18T03:19:12.927Z,27.13
2022-12-18T03:24:14.935Z,27.67
2022-12-18T03:29:24.231Z,26.63
2022-12-18T03:34:31.583Z,25.40
2022-12-18T03:39:34.204Z,27.10
2022-12-18T03:44:38.728Z,25.03
2022-12-18T03:50:15.752Z,26.07
2022-12-18T03:55:19.001Z,23.43
2022-12-18T04:00:21.929Z,26.97
2022-12-18T04:05:25.746Z,24.93
2022-12-18T04:10:27.464Z,22.80
2022-12-18T04:15:29.216Z,21.50
2022-12-18T04:20:31.050Z,20.53
2022-12-18T04:25:32.671Z,19.80
2022-12-18T04:30:34.396Z,19.27
2022-12-18T04:35:36.077Z,18.97
2022-12-18T04:40:38.359Z,20.20
2022-12-18T04:45:39.982Z,19.87
2022-12-18T04:50:42.409Z,19.40
2022-12-18T04:55:44.234Z,19.37
2022-12-18T05:00:45.968Z,19.53
2022-12-18T05:05:51.709Z,24.83
2022-12-18T05:11:19.830Z,20.20
2022-12-18T05:16:21.511Z,21.43
2022-12-18T05:21:23.340Z,21.03
2022-12-18T05:26:25.004Z,21.37
2022-12-18T05:31:26.809Z,20.87
2022-12-18T05:36:28.489Z,20.47
2022-12-18T05:41:30.171Z,18.20
2022-12-18T05:46:31.844Z,17.93
2022-12-18T05:51:33.992Z,18.73
2022-12-18T05:56:35.654Z,18.57
2022-12-18T06:01:37.577Z,16.27
2022-12-18T06:06:39.460Z,16.80
2022-12-18T06:11:41.095Z,15.67
2022-12-18T06:16:42.739Z,14.40
2022-12-18T06:21:44.577Z,12.83
2022-12-18T06:26:46.255Z,14.17
2022-12-18T06:31:47.942Z,14.93
2022-12-18T06:36:49.636Z,15.27
2022-12-18T06:41:51.327Z,12.90
2022-12-18T06:46:53.002Z,11.37
2022-12-18T06:51:54.667Z,12.87
2022-12-18T06:56:56.391Z,12.13
2022-12-18T07:01:58.157Z,11.33
2022-12-18T07:07:01.273Z,10.53
2022-12-18T07:12:03.043Z,11.30
2022-12-18T07:17:04.784Z,10.93
2022-12-18T07:22:08.112Z,10.23
2022-12-18T07:27:09.809Z,11.80
2022-12-18T07:32:12.042Z,12.10
2022-12-18T07:37:14.304Z,11.17
2022-12-18T07:42:31.738Z,10.73
2022-12-18T07:47:36.732Z,10.63
2022-12-18T07:52:38.423Z,11.00
2022-12-18T07:57:59.385Z,11.00
2022-12-18T08:03:01.970Z,12.87
2022-12-18T08:08:03.764Z,12.00
2022-12-18T08:13:05.483Z,15.03
2022-12-18T08:18:11.361Z,13.80
2022-12-18T08:23:15.645Z,12.23
2022-12-18T08:28:17.273Z,13.53
2022-12-18T08:33:18.999Z,17.47
2022-12-18T08:38:20.739Z,17.03
2022-12-18T08:43:41.518Z,15.20
2022-12-18T08:48:43.657Z,16.13
2022-12-18T08:53:45.714Z,14.17
2022-12-18T08:58:48.556Z,16.70
2022-12-18T09:03:51.150Z,14.73
2022-12-18T09:08:52.887Z,18.47
2022-12-18T09:13:55.591Z,14.63
2022-12-18T09:19:00.533Z,12.57
2022-12-18T09:24:02.442Z,12.30
2022-12-18T09:29:04.449Z,12.17
2022-12-18T09:34:06.178Z,10.67
2022-12-18T09:39:09.001Z,11.10
2022-12-18T09:44:21.177Z,11.10
2022-12-18T09:49:24.777Z,9.80
2022-12-18T09:54:45.181Z,11.13
2022-12-18T09:59:51.623Z,11.23
2022-12-18T10:10:46.584Z,10.87
2022-12-18T10:15:55.602Z,9.93
2022-12-18T10:21:01.405Z,10.80
2022-12-18T10:26:11.294Z,9.33
2022-12-18T10:31:18.819Z,10.30
2022-12-18T10:36:21.358Z,8.37
2022-12-18T10:41:27.852Z,11.17
2022-12-18T10:46:31.221Z,10.90
2022-12-18T10:51:35.340Z,11.13
2022-12-18T10:56:37.899Z,9.13
2022-12-18T11:01:57.004Z,8.70
2022-12-18T11:07:03.831Z,10.77
2022-12-18T11:12:16.987Z,8.80
2022-12-18T11:17:33.613Z,8.67
2022-12-18T11:22:36.491Z,8.90
2022-12-18T11:27:39.538Z,10.47
2022-12-18T11:32:44.655Z,9.97
2022-12-18T11:37:54.111Z,10.13
2022-12-18T11:43:04.697Z,9.13
2022-12-18T11:48:18.484Z,9.47
2022-12-18T11:53:20.973Z,9.73
2022-12-18T11:58:38.101Z,8.40
2022-12-18T12:04:04.702Z,10.77
2022-12-18T12:09:27.462Z,10.37
2022-12-18T12:14:42.094Z,8.30
2022-12-18T12:20:30.522Z,10.07
2022-12-18T12:25:57.313Z,8.80
2022-12-18T12:36:37.321Z,8.33
2022-12-18T12:41:59.871Z,9.47
2022-12-18T12:47:14.562Z,9.80
2022-12-18T12:52:37.292Z,9.40
2022-12-18T12:57:41.607Z,10.30
2022-12-18T13:02:52.510Z,9.97
2022-12-18T13:13:23.843Z,11.63
2022-12-18T13:18:26.359Z,8.90
2022-12-18T13:23:46.331Z,9.10
2022-12-18T13:28:49.138Z,8.70
2022-12-18T13:39:18.513Z,8.33
2022-12-18T13:44:41.556Z,8.33
2022-12-18T13:49:45.358Z,7.40
2022-12-18T13:54:52.851Z,8.40
2022-12-18T13:59:56.373Z,7.60
2022-12-18T14:04:57.995Z,7.30
2022-12-18T14:10:33.541Z,7.83
2022-12-18T14:15:31.827Z,11.90
2022-12-18T14:20:34.271Z,7.93
2022-12-18T14:25:39.161Z,7.00
2022-12-18T14:30:46.061Z,5.83
2022-12-18T14:35:55.517Z,6.17
2022-12-18T14:41:08.080Z,7.03
2022-12-18T14:46:38.685Z,5.30
2022-12-18T14:51:40.426Z,6.97
2022-12-18T14:57:07.061Z,7.60
2022-12-18T15:02:29.115Z,6.77
2022-12-18T15:07:44.772Z,7.27
2022-12-18T15:12:51.437Z,6.03
2022-12-18T15:18:08.370Z,7.43
2022-12-18T15:23:20.834Z,6.27
2022-12-18T15:28:38.448Z,7.10
2022-12-18T15:33:47.479Z,7.83
2022-12-18T15:38:52.182Z,6.67
2022-12-18T15:43:54.158Z,5.80
2022-12-18T15:49:01.707Z,6.73
2022-12-18T15:54:07.344Z,6.70
2022-12-18T15:59:28.793Z,7.67
2022-12-18T16:04:30.876Z,9.00
2022-12-18T16:09:34.732Z,7.40
2022-12-18T16:21:39.727Z,9.23
2022-12-18T16:27:24.568Z,8.50
2022-12-18T16:32:26.287Z,9.13
2022-12-18T16:37:28.108Z,9.53
2022-12-18T16:42:45.749Z,8.90
2022-12-18T16:47:47.550Z,10.73
2022-12-18T16:52:49.233Z,8.87
2022-12-18T16:58:51.394Z,10.13
2022-12-18T17:04:09.807Z,10.67
2022-12-18T17:09:48.565Z,11.03
2022-12-18T17:14:52.931Z,13.33
2022-12-18T17:26:22.462Z,11.83
2022-12-18T17:37:56.244Z,13.27
2022-12-18T17:43:29.288Z,13.00
2022-12-18T17:49:16.017Z,15.43
2022-12-18T17:54:20.400Z,14.47
2022-12-18T17:59:25.393Z,15.67
2022-12-18T18:05:36.803Z,15.07
2022-12-18T18:10:52.410Z,17.33
2022-12-18T18:15:58.015Z,19.00
2022-12-18T18:21:07.570Z,17.23
2022-12-18T18:26:39.315Z,18.37
2022-12-18T18:31:41.705Z,19.00
2022-12-18T18:36:54.461Z,19.20
2022-12-18T18:42:18.992Z,19.80
2022-12-18T18:47:21.106Z,19.03
2022-12-18T18:52:22.735Z,19.53
2022-12-18T18:57:30.856Z,20.47
2022-12-18T19:02:32.687Z,20.07
2022-12-18T19:07:34.522Z,20.00
2022-12-18T19:12:54.987Z,23.07
2022-12-18T19:17:56.699Z,22.53
2022-12-18T19:22:59.124Z,21.17
2022-12-18T19:28:03.160Z,21.47
2022-12-18T19:33:34.013Z,21.67
2022-12-18T19:38:36.953Z,21.37
2022-12-18T19:43:39.390Z,23.90
2022-12-18T19:49:11.965Z,21.83
2022-12-18T19:54:19.220Z,23.03
2022-12-18T19:59:22.522Z,23.03
2022-12-18T20:04:24.323Z,21.63
2022-12-18T20:09:26.205Z,24.10
2022-12-18T20:15:09.144Z,24.47
2022-12-18T20:20:13.773Z,26.13
2022-12-18T20:25:23.094Z,24.47
2022-12-18T20:30:27.998Z,23.67
2022-12-18T20:35:34.425Z,23.67
2022-12-18T20:40:36.841Z,28.13
2022-12-18T20:45:40.889Z,24.47
2022-12-18T20:50:59.739Z,24.90
2022-12-18T20:56:16.520Z,24.50
2022-12-18T21:01:24.161Z,24.83
2022-12-18T21:06:32.353Z,22.43
2022-12-18T21:12:03.639Z,22.63
2022-12-18T21:17:06.411Z,21.93
2022-12-18T21:22:08.325Z,22.40
2022-12-18T21:27:17.832Z,25.03
2022-12-18T21:32:24.973Z,21.77
2022-12-18T21:37:49.212Z,24.17
2022-12-18T21:43:09.894Z,21.50
2022-12-18T21:48:13.104Z,22.67
2022-12-18T21:53:14.957Z,22.80
2022-12-18T21:58:16.646Z,30.83
2022-12-18T22:03:19.479Z,22.57
2022-12-18T22:08:21.340Z,23.20
2022-12-18T22:13:23.148Z,22.73
2022-12-18T22:18:30.609Z,22.67
2022-12-18T22:23:34.669Z,22.43
2022-12-18T22:29:12.732Z,21.97
2022-12-18T22:34:14.474Z,23.80
2022-12-18T22:39:17.962Z,22.23
2022-12-18T22:44:19.991Z,23.87
2022-12-18T22:49:23.715Z,21.77
2022-12-18T22:54:25.354Z,23.60
2022-12-18T22:59:27.254Z,22.70
2022-12-18T23:04:35.916Z,22.10
2022-12-18T23:09:37.978Z,22.73
2022-12-18T23:14:39.579Z,22.47
2022-12-18T23:19:47.179Z,23.07
2022-12-18T23:24:50.565Z,22.53
2022-12-18T23:29:52.191Z,23.83
2022-12-18T23:34:55.224Z,24.23
2022-12-18T23:39:56.828Z,21.80
2022-12-18T23:44:58.458Z,24.17
2022-12-18T23:50:01.503Z,24.63
2022-12-18T23:55:03.669Z,22.17
